Time;durP1;ratioP1;P1;durP2;ratioP2;P2;SDS_P1;SDS_P2;PMS_P1;PMS_P2;Temp;Humidity;BMP_temperature;BMP_pressure;BME280_temperature;BME280_humidity;BME280_pressure;Samples;Min_cycle;Max_cycle;Signal;HPM_P1;HPM_P2
2021/05/28 00:03:15;;;;;;;4.80;2.95;;;16.20;91.80;;;;;;12029267;28;21146;-71
2021/05/28 00:09:02;;;;;;;8.35;3.45;;;16.20;91.70;;;;;;12013464;28;20435;-71
2021/05/28 00:14:48;;;;;;;7.20;3.67;;;16.20;91.80;;;;;;12025445;28;20110;-71
2021/05/28 00:20:35;;;;;;;8.30;3.63;;;16.10;92.00;;;;;;12033170;28;20055;-71
2021/05/28 00:26:22;;;;;;;9.55;4.00;;;16.00;92.20;;;;;;12043079;28;20055;-71
2021/05/28 00:32:09;;;;;;;5.50;3.55;;;16.00;91.90;;;;;;12022118;28;20049;-71
2021/05/28 00:37:56;;;;;;;9.32;4.13;;;15.90;92.30;;;;;;12020248;28;20056;-71
2021/05/28 00:43:42;;;;;;;8.45;3.90;;;15.90;92.40;;;;;;12005475;28;20072;-71
2021/05/28 00:49:29;;;;;;;8.60;3.75;;;15.90;92.30;;;;;;12033908;28;20052;-71
2021/05/28 00:55:16;;;;;;;10.75;4.30;;;15.90;92.60;;;;;;12024048;28;20522;-71
2021/05/28 01:01:03;;;;;;;5.80;3.53;;;15.80;92.80;;;;;;12036274;28;20438;-71
2021/05/28 01:06:49;;;;;;;10.40;4.32;;;15.80;92.80;;;;;;12034747;28;20579;-71
2021/05/28 01:12:36;;;;;;;6.20;4.20;;;15.70;93.20;;;;;;12034179;28;20477;-71
2021/05/28 01:18:23;;;;;;;6.00;3.72;;;15.60;93.50;;;;;;11988541;28;20045;-71
2021/05/28 01:24:11;;;;;;;5.55;4.40;;;15.60;94.00;;;;;;12013199;28;20045;-71
2021/05/28 01:29:57;;;;;;;10.63;4.30;;;15.70;94.40;;;;;;12030886;28;20059;-71
2021/05/28 01:35:44;;;;;;;11.35;4.28;;;15.80;94.70;;;;;;12002760;28;20052;-71
2021/05/28 01:41:31;;;;;;;6.95;4.78;;;15.90;94.70;;;;;;12029019;28;20122;-71
2021/05/28 01:47:18;;;;;;;10.90;4.68;;;16.00;94.80;;;;;;12038624;28;20126;-72
2021/05/28 01:53:04;;;;;;;6.68;5.07;;;16.00;95.00;;;;;;12035943;28;20049;-72
2021/05/28 01:58:53;;;;;;;7.75;5.05;;;16.00;95.20;;;;;;12034563;28;20710;-72
2021/05/28 02:04:39;;;;;;;8.77;4.80;;;16.00;95.50;;;;;;12018272;28;20060;-72
2021/05/28 02:10:26;;;;;;;10.65;5.20;;;16.00;95.70;;;;;;12023755;28;20065;-71
2021/05/28 02:16:14;;;;;;;5.90;4.55;;;16.00;96.00;;;;;;11995272;28;20048;-71
2021/05/28 02:22:00;;;;;;;10.65;4.97;;;16.00;96.30;;;;;;12014949;28;20506;-71
2021/05/28 02:27:47;;;;;;;7.20;5.07;;;15.80;96.70;;;;;;12032004;28;20058;-78
2021/05/28 02:33:36;;;;;;;5.55;4.50;;;15.60;97.40;;;;;;12035079;28;20178;-78
2021/05/28 02:39:22;;;;;;;11.60;5.07;;;15.60;97.90;;;;;;12043722;28;20060;-78
2021/05/28 02:45:09;;;;;;;5.28;4.53;;;15.70;98.00;;;;;;12011678;28;20607;-78
2021/05/28 02:50:56;;;;;;;6.78;4.57;;;15.60;98.30;;;;;;12031032;28;20328;-78
2021/05/28 02:56:43;;;;;;;7.18;5.28;;;15.60;98.50;;;;;;12037118;28;20530;-78
2021/05/28 03:02:29;;;;;;;8.05;5.78;;;15.50;98.60;;;;;;12030545;28;20049;-78
2021/05/28 03:08:17;;;;;;;6.53;4.78;;;15.40;99.10;;;;;;12034776;28;20063;-78
2021/05/28 03:14:03;;;;;;;4.72;4.25;;;15.40;99.30;;;;;;12034104;28;20151;-78
2021/05/28 03:19:50;;;;;;;6.85;4.10;;;15.50;99.00;;;;;;12033424;28;20056;-78
2021/05/28 03:25:38;;;;;;;7.93;4.60;;;15.50;98.60;;;;;;12034063;28;20131;-77
2021/05/28 03:31:25;;;;;;;8.10;5.55;;;15.50;98.90;;;;;;12016170;28;20049;-78
2021/05/28 07:53:53;;;;;;;12.40;6.18;;;18.00;99.90;;;;;;12135500;27;20116;-72
2021/05/28 07:59:39;;;;;;;12.23;6.30;;;18.10;99.90;;;;;;12129218;28;20089;-71
2021/05/28 08:05:26;;;;;;;11.18;6.65;;;18.40;99.10;;;;;;12126231;27;20406;-73
2021/05/28 08:11:14;;;;;;;11.93;5.80;;;18.60;98.00;;;;;;12129871;27;20142;-72
2021/05/28 08:17:01;;;;;;;10.90;5.32;;;18.80;97.20;;;;;;12118016;27;20131;-72
2021/05/28 08:22:48;;;;;;;12.85;6.57;;;19.00;96.00;;;;;;12097848;28;20064;-73
2021/05/28 08:28:35;;;;;;;11.75;6.15;;;19.20;95.00;;;;;;12070389;28;20052;-72
2021/05/28 08:34:22;;;;;;;11.25;5.50;;;19.20;94.60;;;;;;12072399;28;20138;-73
2021/05/28 08:40:10;;;;;;;8.10;5.70;;;19.00;94.20;;;;;;12071331;28;20040;-73
2021/05/28 08:46:01;;;;;;;7.22;5.28;;;18.90;93.70;;;;;;12075964;28;20052;-71
2021/05/28 08:51:47;;;;;;;10.48;5.65;;;18.90;93.80;;;;;;12070053;28;20044;-73
2021/05/28 08:57:34;;;;;;;14.02;5.68;;;18.80;92.60;;;;;;12070463;28;20060;-73
2021/05/28 09:03:24;;;;;;;10.57;5.05;;;18.80;93.10;;;;;;12052754;28;20060;-75
2021/05/28 09:09:15;;;;;;;7.60;4.90;;;18.90;93.40;;;;;;12032151;28;20055;-73
2021/05/28 09:15:17;;;;;;;7.70;5.10;;;18.90;92.50;;;;;;12039374;28;20086;-73
2021/05/28 09:21:04;;;;;;;8.45;5.10;;;19.00;92.20;;;;;;12036859;28;20067;-74
2021/05/28 09:26:51;;;;;;;8.80;5.20;;;19.00;91.10;;;;;;12036683;28;20045;-75
2021/05/28 09:32:38;;;;;;;7.32;3.97;;;19.30;91.60;;;;;;12038328;28;20048;-74
2021/05/28 09:38:26;;;;;;;6.32;4.60;;;19.50;90.90;;;;;;12037503;28;20052;-74
2021/05/28 09:44:15;;;;;;;10.63;5.18;;;19.80;90.30;;;;;;12037693;28;20427;-74
2021/05/28 09:50:01;;;;;;;8.77;4.15;;;20.20;88.40;;;;;;12037019;28;20114;-75
2021/05/28 09:55:48;;;;;;;6.95;4.25;;;20.30;88.60;;;;;;12036039;28;20095;-76
2021/05/28 10:01:36;;;;;;;6.93;3.80;;;20.50;84.80;;;;;;12038891;28;20119;-74
2021/05/28 10:07:25;;;;;;;6.70;4.03;;;20.60;79.80;;;;;;12038747;28;20048;-73
2021/05/28 10:13:21;;;;;;;7.57;3.67;;;20.60;78.80;;;;;;12037136;28;20049;-76
2021/05/28 10:19:07;;;;;;;4.20;2.83;;;20.70;77.50;;;;;;12039319;28;20143;-73
2021/05/28 10:24:54;;;;;;;5.03;3.03;;;20.80;76.10;;;;;;12039540;28;20059;-74
2021/05/28 10:30:43;;;;;;;4.85;1.95;;;20.70;73.60;;;;;;12038112;28;20056;-75
2021/05/28 10:36:43;;;;;;;5.80;2.50;;;20.80;72.00;;;;;;12036215;28;20052;-74
2021/05/28 10:42:29;;;;;;;7.25;3.08;;;20.90;72.50;;;;;;12033619;28;20056;-76
2021/05/28 10:48:37;;;;;;;4.03;1.80;;;21.00;73.30;;;;;;12039496;28;20109;-76
2021/05/28 10:54:31;;;;;;;2.72;2.30;;;21.20;70.80;;;;;;12030533;28;21143;-76
2021/05/28 11:00:29;;;;;;;4.68;2.60;;;21.10;67.80;;;;;;12035094;28;20476;-73
2021/05/28 11:06:16;;;;;;;4.80;2.22;;;21.00;68.50;;;;;;12040985;28;20051;-80
2021/05/28 11:12:03;;;;;;;4.38;2.60;;;21.20;66.50;;;;;;12044058;28;20101;-77
2021/05/28 11:17:59;;;;;;;4.50;3.00;;;21.20;67.80;;;;;;12018107;28;20060;-77
2021/05/28 11:23:47;;;;;;;2.42;2.08;;;21.20;68.50;;;;;;12034289;28;20040;-78
2021/05/28 11:29:34;;;;;;;2.97;2.03;;;21.40;67.80;;;;;;12038358;28;20044;-79
2021/05/28 11:35:22;;;;;;;2.45;1.40;;;21.60;66.80;;;;;;12036083;28;20174;-82
2021/05/28 11:41:09;;;;;;;2.42;1.50;;;21.80;66.20;;;;;;12035906;28;20052;-80
2021/05/28 11:46:56;;;;;;;2.72;1.65;;;22.30;61.60;;;;;;12042809;28;20140;-83
2021/05/28 11:52:56;;;;;;;3.13;1.60;;;22.50;60.90;;;;;;12040514;28;20045;-74
2021/05/28 11:58:51;;;;;;;5.68;1.73;;;22.50;59.30;;;;;;12027344;28;20048;-75
2021/05/28 12:04:37;;;;;;;3.72;1.90;;;22.60;58.90;;;;;;11999918;28;20045;-76
2021/05/28 12:10:25;;;;;;;2.75;1.60;;;22.30;59.50;;;;;;12027124;28;20057;-76
2021/05/28 12:16:17;;;;;;;1.38;1.20;;;22.40;61.10;;;;;;12032811;28;20067;-75
2021/05/28 12:22:10;;;;;;;2.35;1.55;;;22.60;57.30;;;;;;12028064;28;20575;-74
2021/05/28 12:28:08;;;;;;;4.77;1.73;;;22.80;59.60;;;;;;12033480;28;20059;-74
2021/05/28 12:33:56;;;;;;;2.85;1.40;;;22.80;58.60;;;;;;12024926;28;20120;-74
2021/05/28 12:39:43;;;;;;;2.47;1.70;;;23.00;59.00;;;;;;12039299;28;20617;-74
2021/05/28 12:45:34;;;;;;;3.17;1.60;;;23.10;58.60;;;;;;12040681;28;20048;-74
2021/05/28 12:51:34;;;;;;;2.00;1.65;;;23.20;56.80;;;;;;12045233;28;20569;-73
2021/05/28 12:57:21;;;;;;;2.53;1.58;;;23.30;57.50;;;;;;12042030;28;20139;-75
2021/05/28 13:03:07;;;;;;;1.85;1.73;;;23.20;55.30;;;;;;12042305;28;20056;-74
2021/05/28 13:08:56;;;;;;;6.15;1.77;;;23.20;56.20;;;;;;12038737;28;20075;-74
2021/05/28 13:14:53;;;;;;;5.40;1.70;;;23.40;59.50;;;;;;12039439;28;20514;-74
2021/05/28 13:20:39;;;;;;;9.10;1.80;;;23.80;57.30;;;;;;12042656;28;20594;-75
2021/05/28 13:26:30;;;;;;;5.28;2.38;;;24.00;57.90;;;;;;12042279;28;20816;-74
2021/05/28 13:32:25;;;;;;;2.17;1.98;;;24.20;57.20;;;;;;12039103;28;20063;-74
2021/05/28 13:38:13;;;;;;;3.65;2.03;;;24.50;57.90;;;;;;12039770;28;20063;-74
2021/05/28 13:44:00;;;;;;;4.63;1.75;;;24.80;57.30;;;;;;12039694;28;20056;-75
2021/05/28 13:49:46;;;;;;;3.15;1.95;;;25.00;56.30;;;;;;12038056;28;20079;-74
2021/05/28 13:55:33;;;;;;;1.85;1.30;;;25.20;56.10;;;;;;12040616;28;20044;-75
2021/05/28 14:01:21;;;;;;;1.83;1.10;;;25.30;55.00;;;;;;12039651;28;20057;-73
2021/05/28 14:07:07;;;;;;;1.52;1.30;;;25.20;52.60;;;;;;12037440;28;20057;-74
2021/05/28 14:12:55;;;;;;;3.60;1.00;;;25.30;51.80;;;;;;12043463;28;20044;-73
2021/05/28 14:18:42;;;;;;;1.15;0.98;;;25.30;51.70;;;;;;12037761;28;20057;-72
2021/05/28 14:24:29;;;;;;;2.63;0.82;;;25.20;51.60;;;;;;12035310;28;20131;-74
2021/05/28 14:30:16;;;;;;;1.10;1.02;;;25.10;50.90;;;;;;12039375;28;20515;-76
2021/05/28 14:36:04;;;;;;;2.83;0.80;;;25.30;51.50;;;;;;12033700;28;20059;-75
2021/05/28 14:41:50;;;;;;;2.03;1.20;;;25.40;49.30;;;;;;12035968;28;20048;-76
2021/05/28 14:47:37;;;;;;;4.18;1.08;;;25.50;52.30;;;;;;12036506;28;20059;-78
2021/05/28 14:53:24;;;;;;;2.72;1.40;;;25.70;52.70;;;;;;12037342;28;20052;-78
2021/05/28 14:59:11;;;;;;;1.48;1.38;;;25.70;53.00;;;;;;12038543;28;20705;-78
2021/05/28 15:04:57;;;;;;;2.60;1.20;;;25.80;52.90;;;;;;12038942;28;20064;-77
2021/05/28 15:10:45;;;;;;;1.33;1.23;;;25.50;52.30;;;;;;12038767;28;20052;-77
2021/05/28 15:16:31;;;;;;;3.20;1.27;;;25.00;53.40;;;;;;12040439;28;20083;-78
2021/05/28 15:22:21;;;;;;;2.03;1.30;;;25.20;52.60;;;;;;12036916;28;20040;-84
2021/05/28 15:28:09;;;;;;;7.40;1.52;;;25.40;51.60;;;;;;12045852;28;20052;-76
2021/05/28 15:33:55;;;;;;;1.30;1.20;;;25.50;53.10;;;;;;12046086;28;20051;-78
2021/05/28 15:39:41;;;;;;;1.95;1.10;;;26.80;51.30;;;;;;12041043;28;20048;-78
2021/05/28 15:45:30;;;;;;;1.55;1.20;;;28.70;47.80;;;;;;12035345;28;20412;-78
2021/05/28 15:51:16;;;;;;;2.15;1.17;;;30.10;46.20;;;;;;12038484;28;20044;-77
2021/05/28 15:57:03;;;;;;;3.00;1.30;;;31.50;44.30;;;;;;12043606;28;20511;-78
2021/05/28 16:02:51;;;;;;;2.92;1.35;;;32.70;41.30;;;;;;12037720;28;20071;-78
2021/05/28 16:08:37;;;;;;;2.90;1.38;;;33.70;39.90;;;;;;12036755;28;20056;-77
2021/05/28 16:14:24;;;;;;;5.75;1.50;;;33.80;39.60;;;;;;12044468;28;20060;-76
2021/05/28 16:20:12;;;;;;;2.30;1.23;;;33.20;40.30;;;;;;12046178;28;20055;-77
2021/05/28 16:25:59;;;;;;;2.95;1.35;;;34.20;38.80;;;;;;12046488;28;20060;-77
2021/05/28 16:31:45;;;;;;;1.98;1.13;;;35.90;37.10;;;;;;12042797;28;20143;-75
2021/05/28 16:37:33;;;;;;;1.35;1.20;;;35.40;37.60;;;;;;12044817;28;20053;-76
2021/05/28 16:43:19;;;;;;;5.28;3.17;;;33.70;39.30;;;;;;12044924;28;20048;-77
2021/05/28 16:49:08;;;;;;;4.40;2.35;;;33.20;39.70;;;;;;12046615;28;20045;-75
2021/05/28 16:54:55;;;;;;;1.55;1.20;;;33.20;39.60;;;;;;12042590;28;20411;-76
2021/05/28 17:00:41;;;;;;;1.55;1.13;;;35.00;37.50;;;;;;12029017;28;20754;-77
2021/05/28 17:06:28;;;;;;;1.55;1.20;;;36.90;35.10;;;;;;12042354;28;20057;-77
2021/05/28 17:12:15;;;;;;;3.08;1.45;;;38.40;33.60;;;;;;12045106;28;20519;-78
2021/05/28 17:18:01;;;;;;;3.40;1.33;;;39.40;31.30;;;;;;12038352;28;20051;-78
2021/05/28 17:23:48;;;;;;;1.67;1.50;;;39.30;31.30;;;;;;12045031;28;20056;-77
2021/05/28 17:29:36;;;;;;;3.60;1.70;;;39.80;30.70;;;;;;12036770;28;20049;-77
2021/05/28 17:35:22;;;;;;;2.60;1.50;;;39.40;31.00;;;;;;12042909;28;20056;-77
2021/05/28 17:41:11;;;;;;;5.47;1.50;;;39.30;31.20;;;;;;12058525;28;20059;-77
2021/05/28 17:46:58;;;;;;;3.00;1.70;;;38.60;31.80;;;;;;12048555;28;20064;-77
2021/05/28 17:52:45;;;;;;;3.55;1.70;;;37.60;33.00;;;;;;12040244;28;20052;-76
2021/05/28 17:58:31;;;;;;;2.55;1.63;;;36.20;34.70;;;;;;12023494;28;20049;-76
2021/05/28 18:04:19;;;;;;;4.57;1.50;;;36.50;34.70;;;;;;12034838;28;20123;-76
2021/05/28 18:10:08;;;;;;;3.00;1.98;;;37.10;34.30;;;;;;12032963;28;20060;-76
2021/05/28 18:15:55;;;;;;;2.58;1.63;;;37.70;33.80;;;;;;12035296;28;20063;-76
2021/05/28 18:21:43;;;;;;;3.40;1.83;;;37.50;33.50;;;;;;12040381;28;20063;-76
2021/05/28 18:27:29;;;;;;;3.83;2.92;;;37.20;34.40;;;;;;12038610;28;20614;-76
2021/05/28 18:33:18;;;;;;;2.92;1.88;;;36.70;35.40;;;;;;12036590;28;20462;-77
2021/05/28 18:39:08;;;;;;;6.70;3.42;;;36.20;35.90;;;;;;12036179;28;20716;-77
2021/05/28 18:44:54;;;;;;;5.53;4.32;;;36.00;36.30;;;;;;12038648;28;20056;-76
2021/05/28 18:56:46;;;;;;;4.03;2.08;;;34.60;38.10;;;;;;12036594;28;20044;-76
2021/05/28 19:02:32;;;;;;;4.88;2.72;;;33.70;39.10;;;;;;12036680;28;20550;-76
2021/05/28 19:08:19;;;;;;;2.63;2.10;;;31.90;41.50;;;;;;12014712;28;20048;-75
2021/05/28 19:14:06;;;;;;;5.38;2.10;;;29.60;45.70;;;;;;12006900;28;20106;-75
2021/05/28 19:19:53;;;;;;;4.10;2.40;;;27.90;48.50;;;;;;12002808;28;20048;-76
2021/05/28 19:25:42;;;;;;;6.68;2.60;;;26.70;50.90;;;;;;12017337;28;20079;-80
2021/05/28 19:31:29;;;;;;;4.35;2.17;;;26.00;52.30;;;;;;12021413;28;20054;-79
2021/05/28 19:37:16;;;;;;;5.38;2.75;;;25.50;53.70;;;;;;12013889;28;20507;-79
2021/05/28 19:43:03;;;;;;;3.97;2.88;;;25.00;54.40;;;;;;12012506;28;20090;-79
2021/05/28 19:48:51;;;;;;;4.65;2.60;;;24.70;54.90;;;;;;12013609;28;20395;-80
2021/05/28 20:00:43;;;;;;;6.78;2.72;;;24.20;56.00;;;;;;12003021;28;20492;-76
2021/05/28 20:06:31;;;;;;;2.40;2.17;;;23.90;55.80;;;;;;11999145;28;20507;-76
2021/05/28 20:18:22;;;;;;;3.50;2.45;;;23.60;54.90;;;;;;12015691;28;20040;-82
2021/05/28 20:24:10;;;;;;;5.30;2.10;;;23.50;55.20;;;;;;12019078;28;33922;-80
2021/05/28 20:29:56;;;;;;;4.32;2.22;;;23.30;56.00;;;;;;11998937;28;21363;-75
2021/05/28 20:35:43;;;;;;;4.20;2.25;;;23.20;56.70;;;;;;12008516;28;20590;-75
2021/05/28 20:41:30;;;;;;;4.45;2.53;;;23.10;56.90;;;;;;12009252;28;20056;-76
2021/05/28 20:47:16;;;;;;;5.68;2.47;;;23.00;57.50;;;;;;12011813;28;20063;-74
2021/05/28 20:53:03;;;;;;;4.28;2.90;;;23.00;57.30;;;;;;12005849;28;20048;-74
2021/05/28 20:58:51;;;;;;;3.78;2.42;;;23.00;57.00;;;;;;12007868;28;20195;-76
2021/05/28 21:04:50;;;;;;;6.47;2.40;;;22.90;56.20;;;;;;12008217;28;20060;-75
2021/05/28 21:10:36;;;;;;;3.53;2.03;;;22.80;56.60;;;;;;12009567;28;20056;-75
2021/05/28 21:16:23;;;;;;;4.35;2.40;;;22.80;57.50;;;;;;12008493;28;20098;-75
2021/05/28 21:22:10;;;;;;;3.47;2.50;;;22.70;57.60;;;;;;12008118;28;20477;-75
2021/05/28 21:27:56;;;;;;;5.07;2.90;;;22.70;58.90;;;;;;12011810;28;20648;-80
2021/05/28 21:33:46;;;;;;;5.82;3.22;;;22.60;59.80;;;;;;12012654;28;20094;-79
2021/05/28 21:39:32;;;;;;;9.27;3.20;;;22.40;60.60;;;;;;12023193;28;20067;-79
2021/05/28 21:45:19;;;;;;;4.40;3.03;;;22.40;60.80;;;;;;12025939;28;20087;-80
2021/05/28 21:51:06;;;;;;;4.55;2.88;;;22.30;61.20;;;;;;12026897;28;20052;-80
2021/05/28 21:56:54;;;;;;;7.97;3.20;;;22.20;61.70;;;;;;12025098;28;20063;-80
2021/05/28 22:02:43;;;;;;;8.18;2.88;;;22.10;63.00;;;;;;12024466;28;20096;-80
2021/05/28 22:08:30;;;;;;;10.38;3.85;;;21.90;63.30;;;;;;12033388;28;20454;-80
2021/05/28 22:14:18;;;;;;;6.05;3.38;;;21.80;62.80;;;;;;12029710;28;20106;-80
2021/05/28 22:20:06;;;;;;;11.43;3.33;;;21.70;62.90;;;;;;12022661;28;20064;-80
2021/05/28 22:25:53;;;;;;;7.53;3.45;;;21.60;64.00;;;;;;12017722;28;20064;-80
2021/05/28 22:37:44;;;;;;;6.25;3.60;;;21.40;64.70;;;;;;12021344;28;20080;-79
2021/05/28 22:43:33;;;;;;;6.43;3.80;;;21.30;65.00;;;;;;12017344;28;20067;-79
2021/05/28 22:49:24;;;;;;;5.40;3.45;;;21.10;65.60;;;;;;12020543;28;20083;-80
2021/05/28 22:55:11;;;;;;;9.85;3.60;;;21.10;66.20;;;;;;12016633;28;20052;-80
2021/05/28 23:00:59;;;;;;;6.65;4.13;;;21.00;66.60;;;;;;12015470;28;20052;-80
2021/05/28 23:06:45;;;;;;;5.72;3.70;;;20.80;67.10;;;;;;12013403;28;20906;-80
2021/05/28 23:12:45;;;;;;;6.30;3.80;;;20.80;67.40;;;;;;12012047;28;20055;-80
2021/05/28 23:18:32;;;;;;;10.32;3.95;;;20.80;67.80;;;;;;12016806;28;20487;-79
2021/05/28 23:24:18;;;;;;;7.30;3.50;;;20.70;68.30;;;;;;12024140;28;20053;-80
2021/05/28 23:30:08;;;;;;;4.75;3.53;;;20.70;68.90;;;;;;12011857;28;20063;-76
2021/05/28 23:35:55;;;;;;;9.20;3.50;;;20.60;69.20;;;;;;12003965;28;20186;-74
2021/05/28 23:41:42;;;;;;;5.90;3.75;;;20.60;69.90;;;;;;12000215;28;20048;-76
2021/05/28 23:47:29;;;;;;;11.13;4.32;;;20.50;70.00;;;;;;12001487;28;20523;-76
2021/05/28 23:53:16;;;;;;;5.00;3.70;;;20.40;70.40;;;;;;12004921;28;20063;-75
2021/05/28 23:59:02;;;;;;;8.48;3.60;;;20.40;70.90;;;;;;12000383;28;22420;-75
